sensor_id;sensor_type;location;lat;lon;timestamp;P1;durP1;ratioP1;P2;durP2;ratioP2
13443;SDS011;6794;59.218;18.218;2023-03-14T00:01:48;4.03;;;2.00;;
13443;SDS011;6794;59.218;18.218;2023-03-14T00:04:14;6.93;;;1.60;;
13443;SDS011;6794;59.218;18.218;2023-03-14T00:06:40;4.93;;;1.70;;
13443;SDS011;6794;59.218;18.218;2023-03-14T00:09:06;7.00;;;2.22;;
13443;SDS011;6794;59.218;18.218;2023-03-14T00:11:32;2.90;;;1.57;;
13443;SDS011;6794;59.218;18.218;2023-03-14T00:13:58;5.07;;;1.70;;
13443;SDS011;6794;59.218;18.218;2023-03-14T00:16:25;5.70;;;1.77;;
13443;SDS011;6794;59.218;18.218;2023-03-14T00:18:51;7.32;;;2.10;;
13443;SDS011;6794;59.218;18.218;2023-03-14T00:21:17;6.87;;;1.60;;
13443;SDS011;6794;59.218;18.218;2023-03-14T00:23:43;5.77;;;1.57;;
13443;SDS011;6794;59.218;18.218;2023-03-14T00:26:11;6.37;;;1.57;;
13443;SDS011;6794;59.218;18.218;2023-03-14T00:28:38;5.57;;;1.53;;
13443;SDS011;6794;59.218;18.218;2023-03-14T00:31:04;4.47;;;1.47;;
13443;SDS011;6794;59.218;18.218;2023-03-14T00:33:31;5.50;;;1.73;;
13443;SDS011;6794;59.218;18.218;2023-03-14T00:35:57;6.10;;;1.88;;
13443;SDS011;6794;59.218;18.218;2023-03-14T00:38:24;4.30;;;1.37;;
13443;SDS011;6794;59.218;18.218;2023-03-14T00:40:51;6.67;;;1.60;;
13443;SDS011;6794;59.218;18.218;2023-03-14T00:43:17;6.33;;;1.67;;
13443;SDS011;6794;59.218;18.218;2023-03-14T00:45:43;5.75;;;1.95;;
13443;SDS011;6794;59.218;18.218;2023-03-14T00:48:10;7.23;;;1.50;;
13443;SDS011;6794;59.218;18.218;2023-03-14T00:50:36;2.47;;;1.40;;
13443;SDS011;6794;59.218;18.218;2023-03-14T00:53:02;8.13;;;1.43;;
13443;SDS011;6794;59.218;18.218;2023-03-14T00:55:28;4.60;;;1.45;;
13443;SDS011;6794;59.218;18.218;2023-03-14T00:57:54;3.83;;;1.20;;
13443;SDS011;6794;59.218;18.218;2023-03-14T01:00:20;4.70;;;1.77;;
13443;SDS011;6794;59.218;18.218;2023-03-14T01:02:46;2.67;;;1.00;;
13443;SDS011;6794;59.218;18.218;2023-03-14T01:05:12;4.03;;;1.45;;
13443;SDS011;6794;59.218;18.218;2023-03-14T01:07:38;3.97;;;1.30;;
13443;SDS011;6794;59.218;18.218;2023-03-14T01:10:04;4.87;;;1.57;;
13443;SDS011;6794;59.218;18.218;2023-03-14T01:12:31;2.60;;;1.17;;
13443;SDS011;6794;59.218;18.218;2023-03-14T01:14:57;2.73;;;1.30;;
13443;SDS011;6794;59.218;18.218;2023-03-14T01:17:23;4.23;;;1.20;;
13443;SDS011;6794;59.218;18.218;2023-03-14T01:19:49;2.63;;;1.17;;
13443;SDS011;6794;59.218;18.218;2023-03-14T01:22:15;4.87;;;1.10;;
13443;SDS011;6794;59.218;18.218;2023-03-14T01:24:41;4.07;;;1.05;;
13443;SDS011;6794;59.218;18.218;2023-03-14T01:27:07;2.97;;;1.10;;
13443;SDS011;6794;59.218;18.218;2023-03-14T01:29:33;6.20;;;1.13;;
13443;SDS011;6794;59.218;18.218;2023-03-14T01:31:59;3.13;;;1.10;;
13443;SDS011;6794;59.218;18.218;2023-03-14T01:34:25;4.63;;;1.20;;
13443;SDS011;6794;59.218;18.218;2023-03-14T01:36:51;2.77;;;0.90;;
13443;SDS011;6794;59.218;18.218;2023-03-14T01:39:17;3.57;;;1.10;;
13443;SDS011;6794;59.218;18.218;2023-03-14T01:41:43;2.47;;;0.90;;
13443;SDS011;6794;59.218;18.218;2023-03-14T01:44:10;4.22;;;1.30;;
13443;SDS011;6794;59.218;18.218;2023-03-14T01:46:37;7.27;;;1.47;;
13443;SDS011;6794;59.218;18.218;2023-03-14T01:51:46;6.10;;;1.50;;
13443;SDS011;6794;59.218;18.218;2023-03-14T01:54:25;5.75;;;1.40;;
13443;SDS011;6794;59.218;18.218;2023-03-14T01:57:03;4.23;;;1.20;;
13443;SDS011;6794;59.218;18.218;2023-03-14T01:59:30;5.33;;;1.30;;
13443;SDS011;6794;59.218;18.218;2023-03-14T02:01:58;4.43;;;1.50;;
13443;SDS011;6794;59.218;18.218;2023-03-14T02:04:25;3.70;;;1.10;;
13443;SDS011;6794;59.218;18.218;2023-03-14T02:06:56;4.00;;;1.13;;
13443;SDS011;6794;59.218;18.218;2023-03-14T02:09:23;6.07;;;1.20;;
13443;SDS011;6794;59.218;18.218;2023-03-14T02:11:49;1.73;;;0.60;;
13443;SDS011;6794;59.218;18.218;2023-03-14T02:14:24;4.97;;;1.30;;
13443;SDS011;6794;59.218;18.218;2023-03-14T02:16:53;6.93;;;1.30;;
13443;SDS011;6794;59.218;18.218;2023-03-14T02:19:21;5.00;;;1.70;;
13443;SDS011;6794;59.218;18.218;2023-03-14T02:21:54;4.53;;;1.50;;
13443;SDS011;6794;59.218;18.218;2023-03-14T02:27:13;4.03;;;1.20;;
13443;SDS011;6794;59.218;18.218;2023-03-14T02:29:51;4.00;;;1.20;;
13443;SDS011;6794;59.218;18.218;2023-03-14T02:32:18;5.57;;;1.43;;
13443;SDS011;6794;59.218;18.218;2023-03-14T02:34:45;6.30;;;1.53;;
13443;SDS011;6794;59.218;18.218;2023-03-14T02:37:13;5.80;;;1.75;;
13443;SDS011;6794;59.218;18.218;2023-03-14T02:39:41;3.60;;;1.20;;
13443;SDS011;6794;59.218;18.218;2023-03-14T02:42:09;6.47;;;1.40;;
13443;SDS011;6794;59.218;18.218;2023-03-14T02:44:35;5.35;;;1.63;;
13443;SDS011;6794;59.218;18.218;2023-03-14T02:47:02;4.87;;;1.40;;
13443;SDS011;6794;59.218;18.218;2023-03-14T02:49:29;4.97;;;1.53;;
13443;SDS011;6794;59.218;18.218;2023-03-14T02:51:57;6.17;;;1.37;;
13443;SDS011;6794;59.218;18.218;2023-03-14T02:54:23;7.40;;;1.90;;
13443;SDS011;6794;59.218;18.218;2023-03-14T02:56:49;5.50;;;1.50;;
13443;SDS011;6794;59.218;18.218;2023-03-14T02:59:15;6.87;;;1.53;;
13443;SDS011;6794;59.218;18.218;2023-03-14T03:01:41;3.87;;;1.20;;
13443;SDS011;6794;59.218;18.218;2023-03-14T03:04:07;4.80;;;1.47;;
13443;SDS011;6794;59.218;18.218;2023-03-14T03:06:33;5.87;;;1.40;;
13443;SDS011;6794;59.218;18.218;2023-03-14T03:08:59;5.53;;;1.83;;
13443;SDS011;6794;59.218;18.218;2023-03-14T03:11:25;6.20;;;1.50;;
13443;SDS011;6794;59.218;18.218;2023-03-14T03:13:51;6.45;;;1.70;;
13443;SDS011;6794;59.218;18.218;2023-03-14T03:16:17;8.83;;;1.90;;
13443;SDS011;6794;59.218;18.218;2023-03-14T03:18:43;5.57;;;1.50;;
13443;SDS011;6794;59.218;18.218;2023-03-14T03:21:09;7.47;;;1.93;;
13443;SDS011;6794;59.218;18.218;2023-03-14T03:23:36;5.85;;;1.83;;
13443;SDS011;6794;59.218;18.218;2023-03-14T03:26:02;8.57;;;1.80;;
13443;SDS011;6794;59.218;18.218;2023-03-14T03:28:28;11.17;;;1.80;;
13443;SDS011;6794;59.218;18.218;2023-03-14T03:30:54;6.03;;;1.77;;
13443;SDS011;6794;59.218;18.218;2023-03-14T03:33:20;7.83;;;1.50;;
13443;SDS011;6794;59.218;18.218;2023-03-14T03:35:49;7.77;;;2.07;;
13443;SDS011;6794;59.218;18.218;2023-03-14T03:38:15;7.37;;;1.70;;
13443;SDS011;6794;59.218;18.218;2023-03-14T03:40:42;6.13;;;1.90;;
13443;SDS011;6794;59.218;18.218;2023-03-14T03:43:08;7.93;;;1.50;;
13443;SDS011;6794;59.218;18.218;2023-03-14T03:45:34;8.80;;;1.80;;
13443;SDS011;6794;59.218;18.218;2023-03-14T03:48:00;9.02;;;1.90;;
13443;SDS011;6794;59.218;18.218;2023-03-14T03:50:26;5.90;;;1.60;;
13443;SDS011;6794;59.218;18.218;2023-03-14T03:52:52;8.27;;;2.00;;
13443;SDS011;6794;59.218;18.218;2023-03-14T03:55:18;10.40;;;1.83;;
13443;SDS011;6794;59.218;18.218;2023-03-14T03:57:44;5.27;;;1.50;;
13443;SDS011;6794;59.218;18.218;2023-03-14T04:00:10;7.90;;;1.50;;
13443;SDS011;6794;59.218;18.218;2023-03-14T04:02:37;7.77;;;1.93;;
13443;SDS011;6794;59.218;18.218;2023-03-14T04:05:04;8.77;;;1.60;;
13443;SDS011;6794;59.218;18.218;2023-03-14T04:07:32;6.10;;;1.70;;
13443;SDS011;6794;59.218;18.218;2023-03-14T04:09:58;8.43;;;1.93;;
13443;SDS011;6794;59.218;18.218;2023-03-14T04:12:24;5.93;;;1.57;;
13443;SDS011;6794;59.218;18.218;2023-03-14T04:14:50;7.43;;;1.50;;
13443;SDS011;6794;59.218;18.218;2023-03-14T04:17:16;5.20;;;1.10;;
13443;SDS011;6794;59.218;18.218;2023-03-14T04:19:42;3.80;;;1.00;;
13443;SDS011;6794;59.218;18.218;2023-03-14T04:22:08;3.87;;;1.20;;
13443;SDS011;6794;59.218;18.218;2023-03-14T04:24:35;4.63;;;1.20;;
13443;SDS011;6794;59.218;18.218;2023-03-14T04:27:01;8.48;;;1.70;;
13443;SDS011;6794;59.218;18.218;2023-03-14T04:29:27;5.57;;;1.20;;
13443;SDS011;6794;59.218;18.218;2023-03-14T04:31:53;4.03;;;1.63;;
13443;SDS011;6794;59.218;18.218;2023-03-14T04:34:19;7.17;;;1.30;;
13443;SDS011;6794;59.218;18.218;2023-03-14T04:36:45;4.17;;;1.20;;
13443;SDS011;6794;59.218;18.218;2023-03-14T04:39:11;8.70;;;1.30;;
13443;SDS011;6794;59.218;18.218;2023-03-14T04:41:37;3.80;;;1.40;;
13443;SDS011;6794;59.218;18.218;2023-03-14T04:44:03;3.23;;;1.40;;
13443;SDS011;6794;59.218;18.218;2023-03-14T04:46:29;2.53;;;1.20;;
13443;SDS011;6794;59.218;18.218;2023-03-14T04:48:55;2.43;;;1.03;;
13443;SDS011;6794;59.218;18.218;2023-03-14T04:51:21;3.63;;;1.00;;
13443;SDS011;6794;59.218;18.218;2023-03-14T04:53:48;3.22;;;1.27;;
13443;SDS011;6794;59.218;18.218;2023-03-14T04:56:14;2.63;;;1.10;;
13443;SDS011;6794;59.218;18.218;2023-03-14T04:58:40;2.93;;;0.77;;
13443;SDS011;6794;59.218;18.218;2023-03-14T05:01:06;1.50;;;0.70;;
13443;SDS011;6794;59.218;18.218;2023-03-14T05:03:32;2.37;;;1.00;;
13443;SDS011;6794;59.218;18.218;2023-03-14T05:06:00;2.10;;;0.97;;
13443;SDS011;6794;59.218;18.218;2023-03-14T05:08:27;2.13;;;1.00;;
13443;SDS011;6794;59.218;18.218;2023-03-14T05:10:53;1.57;;;0.70;;
13443;SDS011;6794;59.218;18.218;2023-03-14T05:13:19;1.87;;;0.90;;
13443;SDS011;6794;59.218;18.218;2023-03-14T05:15:45;1.27;;;1.10;;
13443;SDS011;6794;59.218;18.218;2023-03-14T05:18:11;1.40;;;0.90;;
13443;SDS011;6794;59.218;18.218;2023-03-14T05:20:37;1.43;;;1.03;;
13443;SDS011;6794;59.218;18.218;2023-03-14T05:23:03;3.87;;;0.90;;
13443;SDS011;6794;59.218;18.218;2023-03-14T05:25:29;2.43;;;1.10;;
13443;SDS011;6794;59.218;18.218;2023-03-14T05:27:55;1.83;;;0.83;;
13443;SDS011;6794;59.218;18.218;2023-03-14T05:30:22;3.53;;;0.70;;
13443;SDS011;6794;59.218;18.218;2023-03-14T05:32:48;1.00;;;0.73;;
13443;SDS011;6794;59.218;18.218;2023-03-14T05:35:14;1.90;;;0.70;;
13443;SDS011;6794;59.218;18.218;2023-03-14T05:37:40;4.03;;;1.10;;
13443;SDS011;6794;59.218;18.218;2023-03-14T05:40:06;1.37;;;0.67;;
13443;SDS011;6794;59.218;18.218;2023-03-14T05:42:33;3.20;;;1.07;;
13443;SDS011;6794;59.218;18.218;2023-03-14T05:45:00;2.20;;;0.82;;
13443;SDS011;6794;59.218;18.218;2023-03-14T05:47:26;2.70;;;1.00;;
13443;SDS011;6794;59.218;18.218;2023-03-14T05:49:52;2.20;;;0.87;;
13443;SDS011;6794;59.218;18.218;2023-03-14T05:52:19;2.13;;;1.00;;
13443;SDS011;6794;59.218;18.218;2023-03-14T05:54:47;3.33;;;0.97;;
13443;SDS011;6794;59.218;18.218;2023-03-14T05:57:14;2.43;;;0.90;;
13443;SDS011;6794;59.218;18.218;2023-03-14T05:59:42;3.00;;;1.20;;
13443;SDS011;6794;59.218;18.218;2023-03-14T06:02:08;5.37;;;1.00;;
13443;SDS011;6794;59.218;18.218;2023-03-14T06:04:34;1.73;;;0.80;;
13443;SDS011;6794;59.218;18.218;2023-03-14T06:07:00;2.33;;;0.87;;
13443;SDS011;6794;59.218;18.218;2023-03-14T06:09:26;2.03;;;0.97;;
13443;SDS011;6794;59.218;18.218;2023-03-14T06:11:52;3.70;;;1.10;;
13443;SDS011;6794;59.218;18.218;2023-03-14T06:14:18;1.37;;;0.67;;
13443;SDS011;6794;59.218;18.218;2023-03-14T06:16:44;2.30;;;0.90;;
13443;SDS011;6794;59.218;18.218;2023-03-14T06:19:12;1.77;;;0.67;;
13443;SDS011;6794;59.218;18.218;2023-03-14T06:21:38;4.63;;;1.03;;
13443;SDS011;6794;59.218;18.218;2023-03-14T06:24:04;2.70;;;0.80;;
13443;SDS011;6794;59.218;18.218;2023-03-14T06:26:31;2.77;;;0.97;;
13443;SDS011;6794;59.218;18.218;2023-03-14T06:28:57;1.20;;;0.93;;
13443;SDS011;6794;59.218;18.218;2023-03-14T06:31:27;3.77;;;0.90;;
13443;SDS011;6794;59.218;18.218;2023-03-14T06:33:53;3.03;;;0.80;;
13443;SDS011;6794;59.218;18.218;2023-03-14T06:36:19;3.10;;;0.90;;
13443;SDS011;6794;59.218;18.218;2023-03-14T06:38:45;4.10;;;1.20;;
13443;SDS011;6794;59.218;18.218;2023-03-14T06:41:11;3.43;;;0.67;;
13443;SDS011;6794;59.218;18.218;2023-03-14T06:43:37;3.37;;;0.80;;
13443;SDS011;6794;59.218;18.218;2023-03-14T06:46:04;4.75;;;0.80;;
13443;SDS011;6794;59.218;18.218;2023-03-14T06:48:30;2.13;;;0.77;;
13443;SDS011;6794;59.218;18.218;2023-03-14T06:50:56;3.27;;;1.00;;
13443;SDS011;6794;59.218;18.218;2023-03-14T06:53:22;4.20;;;0.90;;
13443;SDS011;6794;59.218;18.218;2023-03-14T06:55:48;4.80;;;0.73;;
13443;SDS011;6794;59.218;18.218;2023-03-14T06:58:14;3.53;;;0.83;;
13443;SDS011;6794;59.218;18.218;2023-03-14T07:00:40;2.17;;;0.67;;
13443;SDS011;6794;59.218;18.218;2023-03-14T07:03:06;2.83;;;0.70;;
13443;SDS011;6794;59.218;18.218;2023-03-14T07:05:32;2.67;;;0.70;;
13443;SDS011;6794;59.218;18.218;2023-03-14T07:07:58;2.53;;;0.80;;
13443;SDS011;6794;59.218;18.218;2023-03-14T07:10:24;1.27;;;0.67;;
13443;SDS011;6794;59.218;18.218;2023-03-14T07:12:50;2.22;;;0.80;;
13443;SDS011;6794;59.218;18.218;2023-03-14T07:15:17;1.63;;;0.70;;
13443;SDS011;6794;59.218;18.218;2023-03-14T07:17:43;2.03;;;0.90;;
13443;SDS011;6794;59.218;18.218;2023-03-14T07:20:10;1.53;;;0.80;;
13443;SDS011;6794;59.218;18.218;2023-03-14T07:22:36;2.73;;;0.90;;
13443;SDS011;6794;59.218;18.218;2023-03-14T07:25:02;3.10;;;0.87;;
13443;SDS011;6794;59.218;18.218;2023-03-14T07:27:28;3.17;;;0.80;;
13443;SDS011;6794;59.218;18.218;2023-03-14T07:29:54;3.00;;;0.70;;
13443;SDS011;6794;59.218;18.218;2023-03-14T07:32:20;1.20;;;0.70;;
13443;SDS011;6794;59.218;18.218;2023-03-14T07:34:46;2.07;;;1.00;;
13443;SDS011;6794;59.218;18.218;2023-03-14T07:37:12;1.90;;;0.73;;
13443;SDS011;6794;59.218;18.218;2023-03-14T07:39:38;2.10;;;0.77;;
13443;SDS011;6794;59.218;18.218;2023-03-14T07:42:04;2.27;;;0.60;;
13443;SDS011;6794;59.218;18.218;2023-03-14T07:44:30;1.57;;;0.60;;
13443;SDS011;6794;59.218;18.218;2023-03-14T07:46:56;1.93;;;0.67;;
13443;SDS011;6794;59.218;18.218;2023-03-14T07:49:22;2.03;;;0.60;;
13443;SDS011;6794;59.218;18.218;2023-03-14T07:51:48;1.93;;;0.70;;
13443;SDS011;6794;59.218;18.218;2023-03-14T07:54:15;0.50;;;0.40;;
13443;SDS011;6794;59.218;18.218;2023-03-14T07:56:41;0.47;;;0.47;;
13443;SDS011;6794;59.218;18.218;2023-03-14T07:59:07;0.47;;;0.40;;
13443;SDS011;6794;59.218;18.218;2023-03-14T08:01:34;0.97;;;0.50;;
13443;SDS011;6794;59.218;18.218;2023-03-14T08:04:00;1.13;;;0.50;;
13443;SDS011;6794;59.218;18.218;2023-03-14T08:06:26;0.40;;;0.33;;
13443;SDS011;6794;59.218;18.218;2023-03-14T08:08:52;3.00;;;0.57;;
13443;SDS011;6794;59.218;18.218;2023-03-14T08:11:18;0.97;;;0.40;;
13443;SDS011;6794;59.218;18.218;2023-03-14T08:13:44;1.43;;;0.60;;
13443;SDS011;6794;59.218;18.218;2023-03-14T08:16:16;1.23;;;0.63;;
13443;SDS011;6794;59.218;18.218;2023-03-14T08:18:42;4.00;;;0.50;;
13443;SDS011;6794;59.218;18.218;2023-03-14T08:21:08;1.03;;;0.60;;
13443;SDS011;6794;59.218;18.218;2023-03-14T08:23:34;1.77;;;0.63;;
13443;SDS011;6794;59.218;18.218;2023-03-14T08:26:01;1.58;;;0.63;;
13443;SDS011;6794;59.218;18.218;2023-03-14T08:28:27;1.03;;;0.50;;
13443;SDS011;6794;59.218;18.218;2023-03-14T08:30:58;0.60;;;0.40;;
13443;SDS011;6794;59.218;18.218;2023-03-14T08:33:24;1.43;;;0.50;;
13443;SDS011;6794;59.218;18.218;2023-03-14T08:35:54;1.27;;;0.60;;
13443;SDS011;6794;59.218;18.218;2023-03-14T08:38:20;1.70;;;0.50;;
13443;SDS011;6794;59.218;18.218;2023-03-14T08:40:46;0.97;;;0.50;;
13443;SDS011;6794;59.218;18.218;2023-03-14T08:43:12;1.27;;;0.60;;
13443;SDS011;6794;59.218;18.218;2023-03-14T08:45:38;0.40;;;0.40;;
13443;SDS011;6794;59.218;18.218;2023-03-14T08:48:05;1.43;;;0.60;;
13443;SDS011;6794;59.218;18.218;2023-03-14T08:50:31;1.30;;;0.45;;
13443;SDS011;6794;59.218;18.218;2023-03-14T08:52:57;0.40;;;0.40;;
13443;SDS011;6794;59.218;18.218;2023-03-14T08:55:25;0.43;;;0.30;;
13443;SDS011;6794;59.218;18.218;2023-03-14T08:57:52;0.30;;;0.30;;
13443;SDS011;6794;59.218;18.218;2023-03-14T09:00:18;0.73;;;0.43;;
13443;SDS011;6794;59.218;18.218;2023-03-14T09:02:45;0.57;;;0.43;;
13443;SDS011;6794;59.218;18.218;2023-03-14T09:05:11;1.43;;;0.50;;
13443;SDS011;6794;59.218;18.218;2023-03-14T09:07:38;1.23;;;0.70;;
13443;SDS011;6794;59.218;18.218;2023-03-14T09:10:05;1.00;;;0.60;;
13443;SDS011;6794;59.218;18.218;2023-03-14T09:12:31;1.63;;;0.43;;
13443;SDS011;6794;59.218;18.218;2023-03-14T09:14:58;1.10;;;0.50;;
13443;SDS011;6794;59.218;18.218;2023-03-14T09:17:24;0.93;;;0.37;;
13443;SDS011;6794;59.218;18.218;2023-03-14T09:19:50;0.40;;;0.30;;
13443;SDS011;6794;59.218;18.218;2023-03-14T09:22:16;0.97;;;0.40;;
13443;SDS011;6794;59.218;18.218;2023-03-14T09:24:42;0.53;;;0.30;;
13443;SDS011;6794;59.218;18.218;2023-03-14T09:27:08;0.47;;;0.47;;
13443;SDS011;6794;59.218;18.218;2023-03-14T09:29:34;0.70;;;0.50;;
13443;SDS011;6794;59.218;18.218;2023-03-14T09:32:00;0.43;;;0.43;;
13443;SDS011;6794;59.218;18.218;2023-03-14T09:34:26;1.10;;;0.50;;
13443;SDS011;6794;59.218;18.218;2023-03-14T09:36:52;0.97;;;0.60;;
13443;SDS011;6794;59.218;18.218;2023-03-14T09:39:18;0.73;;;0.30;;
13443;SDS011;6794;59.218;18.218;2023-03-14T09:41:46;1.53;;;0.37;;
13443;SDS011;6794;59.218;18.218;2023-03-14T09:46:45;1.10;;;0.57;;
13443;SDS011;6794;59.218;18.218;2023-03-14T09:49:21;2.57;;;0.47;;
13443;SDS011;6794;59.218;18.218;2023-03-14T09:51:48;0.63;;;0.40;;
13443;SDS011;6794;59.218;18.218;2023-03-14T09:54:24;0.77;;;0.30;;
13443;SDS011;6794;59.218;18.218;2023-03-14T09:56:52;0.30;;;0.27;;
13443;SDS011;6794;59.218;18.218;2023-03-14T09:59:18;0.40;;;0.30;;
13443;SDS011;6794;59.218;18.218;2023-03-14T10:01:45;1.20;;;0.40;;
13443;SDS011;6794;59.218;18.218;2023-03-14T10:04:12;0.27;;;0.27;;
13443;SDS011;6794;59.218;18.218;2023-03-14T10:06:40;0.67;;;0.43;;
13443;SDS011;6794;59.218;18.218;2023-03-14T10:09:08;0.20;;;0.20;;
13443;SDS011;6794;59.218;18.218;2023-03-14T10:11:34;0.70;;;0.30;;
13443;SDS011;6794;59.218;18.218;2023-03-14T10:16:28;0.50;;;0.30;;
13443;SDS011;6794;59.218;18.218;2023-03-14T10:18:58;0.30;;;0.30;;
13443;SDS011;6794;59.218;18.218;2023-03-14T10:21:28;0.73;;;0.30;;
13443;SDS011;6794;59.218;18.218;2023-03-14T10:23:54;0.50;;;0.40;;
13443;SDS011;6794;59.218;18.218;2023-03-14T10:26:24;0.30;;;0.30;;
13443;SDS011;6794;59.218;18.218;2023-03-14T10:28:52;0.60;;;0.40;;
13443;SDS011;6794;59.218;18.218;2023-03-14T10:31:19;0.25;;;0.25;;
13443;SDS011;6794;59.218;18.218;2023-03-14T10:34:01;1.30;;;0.40;;
13443;SDS011;6794;59.218;18.218;2023-03-14T10:36:28;0.50;;;0.50;;
13443;SDS011;6794;59.218;18.218;2023-03-14T10:39:39;0.20;;;0.20;;
13443;SDS011;6794;59.218;18.218;2023-03-14T10:41:48;0.40;;;0.40;;
13443;SDS011;6794;59.218;18.218;2023-03-14T10:44:16;0.20;;;0.20;;
13443;SDS011;6794;59.218;18.218;2023-03-14T10:46:45;1.13;;;0.30;;
13443;SDS011;6794;59.218;18.218;2023-03-14T10:49:22;0.77;;;0.43;;
13443;SDS011;6794;59.218;18.218;2023-03-14T10:51:49;1.08;;;0.40;;
13443;SDS011;6794;59.218;18.218;2023-03-14T10:54:22;0.23;;;0.20;;
13443;SDS011;6794;59.218;18.218;2023-03-14T10:57:01;0.63;;;0.43;;
13443;SDS011;6794;59.218;18.218;2023-03-14T10:59:27;0.73;;;0.27;;
13443;SDS011;6794;59.218;18.218;2023-03-14T11:01:55;0.20;;;0.20;;
13443;SDS011;6794;59.218;18.218;2023-03-14T11:07:04;0.47;;;0.10;;
13443;SDS011;6794;59.218;18.218;2023-03-14T11:14:49;0.90;;;0.40;;
13443;SDS011;6794;59.218;18.218;2023-03-14T11:17:23;0.30;;;0.30;;
13443;SDS011;6794;59.218;18.218;2023-03-14T11:22:46;0.10;;;0.10;;
13443;SDS011;6794;59.218;18.218;2023-03-14T11:30:15;0.27;;;0.27;;
13443;SDS011;6794;59.218;18.218;2023-03-14T11:35:22;0.90;;;0.30;;
13443;SDS011;6794;59.218;18.218;2023-03-14T11:37:51;0.10;;;0.10;;
13443;SDS011;6794;59.218;18.218;2023-03-14T11:40:22;0.57;;;0.57;;
13443;SDS011;6794;59.218;18.218;2023-03-14T11:42:59;0.33;;;0.33;;
13443;SDS011;6794;59.218;18.218;2023-03-14T11:45:29;0.50;;;0.40;;
13443;SDS011;6794;59.218;18.218;2023-03-14T11:48:13;0.40;;;0.40;;
13443;SDS011;6794;59.218;18.218;2023-03-14T11:50:42;0.37;;;0.37;;
13443;SDS011;6794;59.218;18.218;2023-03-14T11:53:22;0.33;;;0.33;;
13443;SDS011;6794;59.218;18.218;2023-03-14T11:55:51;0.73;;;0.50;;
13443;SDS011;6794;59.218;18.218;2023-03-14T11:58:25;0.50;;;0.50;;
13443;SDS011;6794;59.218;18.218;2023-03-14T12:00:53;0.40;;;0.40;;
13443;SDS011;6794;59.218;18.218;2023-03-14T12:03:32;0.27;;;0.27;;
13443;SDS011;6794;59.218;18.218;2023-03-14T12:13:54;0.70;;;0.60;;
13443;SDS011;6794;59.218;18.218;2023-03-14T12:18:46;0.40;;;0.40;;
13443;SDS011;6794;59.218;18.218;2023-03-14T12:21:12;0.87;;;0.80;;
13443;SDS011;6794;59.218;18.218;2023-03-14T12:23:41;0.70;;;0.70;;
13443;SDS011;6794;59.218;18.218;2023-03-14T12:28:37;1.00;;;0.90;;
13443;SDS011;6794;59.218;18.218;2023-03-14T12:33:48;0.90;;;0.90;;
13443;SDS011;6794;59.218;18.218;2023-03-14T12:36:20;2.33;;;1.70;;
13443;SDS011;6794;59.218;18.218;2023-03-14T12:39:06;1.30;;;1.00;;
13443;SDS011;6794;59.218;18.218;2023-03-14T12:41:38;0.98;;;0.80;;
13443;SDS011;6794;59.218;18.218;2023-03-14T12:44:37;1.10;;;0.63;;
13443;SDS011;6794;59.218;18.218;2023-03-14T12:49:42;2.75;;;1.10;;
13443;SDS011;6794;59.218;18.218;2023-03-14T12:59:58;1.27;;;0.57;;
13443;SDS011;6794;59.218;18.218;2023-03-14T13:02:28;1.85;;;0.60;;
13443;SDS011;6794;59.218;18.218;2023-03-14T13:07:31;0.60;;;0.60;;
13443;SDS011;6794;59.218;18.218;2023-03-14T13:10:05;0.90;;;0.60;;
13443;SDS011;6794;59.218;18.218;2023-03-14T13:12:45;0.57;;;0.57;;
13443;SDS011;6794;59.218;18.218;2023-03-14T13:15:14;1.57;;;0.43;;
13443;SDS011;6794;59.218;18.218;2023-03-14T13:17:41;1.60;;;0.30;;
13443;SDS011;6794;59.218;18.218;2023-03-14T13:20:21;1.27;;;0.50;;
13443;SDS011;6794;59.218;18.218;2023-03-14T13:22:49;1.55;;;0.80;;
13443;SDS011;6794;59.218;18.218;2023-03-14T13:25:15;0.57;;;0.57;;
13443;SDS011;6794;59.218;18.218;2023-03-14T13:27:43;1.48;;;0.60;;
13443;SDS011;6794;59.218;18.218;2023-03-14T13:32:42;0.45;;;0.45;;
13443;SDS011;6794;59.218;18.218;2023-03-14T13:35:26;1.30;;;0.93;;
13443;SDS011;6794;59.218;18.218;2023-03-14T13:37:59;0.33;;;0.30;;
13443;SDS011;6794;59.218;18.218;2023-03-14T13:40:28;1.02;;;0.70;;
13443;SDS011;6794;59.218;18.218;2023-03-14T13:43:05;1.10;;;0.50;;
13443;SDS011;6794;59.218;18.218;2023-03-14T13:45:40;0.80;;;0.52;;
13443;SDS011;6794;59.218;18.218;2023-03-14T13:48:08;0.40;;;0.40;;
13443;SDS011;6794;59.218;18.218;2023-03-14T13:50:35;0.80;;;0.60;;
13443;SDS011;6794;59.218;18.218;2023-03-14T13:53:01;0.70;;;0.60;;
13443;SDS011;6794;59.218;18.218;2023-03-14T13:55:27;1.10;;;0.70;;
13443;SDS011;6794;59.218;18.218;2023-03-14T13:57:55;1.07;;;0.70;;
13443;SDS011;6794;59.218;18.218;2023-03-14T14:00:22;1.08;;;0.77;;
13443;SDS011;6794;59.218;18.218;2023-03-14T14:02:51;1.57;;;1.10;;
13443;SDS011;6794;59.218;18.218;2023-03-14T14:05:18;1.13;;;0.67;;
13443;SDS011;6794;59.218;18.218;2023-03-14T14:07:44;0.70;;;0.70;;
13443;SDS011;6794;59.218;18.218;2023-03-14T14:10:11;0.30;;;0.30;;
13443;SDS011;6794;59.218;18.218;2023-03-14T14:12:39;1.67;;;0.57;;
13443;SDS011;6794;59.218;18.218;2023-03-14T14:15:16;0.60;;;0.60;;
13443;SDS011;6794;59.218;18.218;2023-03-14T14:17:46;3.93;;;1.33;;
13443;SDS011;6794;59.218;18.218;2023-03-14T14:20:17;3.13;;;1.60;;
13443;SDS011;6794;59.218;18.218;2023-03-14T14:22:46;1.87;;;1.50;;
13443;SDS011;6794;59.218;18.218;2023-03-14T14:25:12;1.60;;;1.23;;
13443;SDS011;6794;59.218;18.218;2023-03-14T14:27:41;2.22;;;1.10;;
13443;SDS011;6794;59.218;18.218;2023-03-14T14:32:42;1.75;;;1.52;;
13443;SDS011;6794;59.218;18.218;2023-03-14T14:35:25;3.03;;;1.80;;
13443;SDS011;6794;59.218;18.218;2023-03-14T14:37:51;3.47;;;1.80;;
13443;SDS011;6794;59.218;18.218;2023-03-14T14:42:43;2.00;;;0.70;;
13443;SDS011;6794;59.218;18.218;2023-03-14T14:45:14;1.33;;;0.70;;
13443;SDS011;6794;59.218;18.218;2023-03-14T14:47:52;0.53;;;0.53;;
13443;SDS011;6794;59.218;18.218;2023-03-14T14:50:29;0.60;;;0.60;;
13443;SDS011;6794;59.218;18.218;2023-03-14T14:52:56;0.53;;;0.53;;
13443;SDS011;6794;59.218;18.218;2023-03-14T14:55:22;0.60;;;0.60;;
13443;SDS011;6794;59.218;18.218;2023-03-14T14:57:50;1.70;;;0.70;;
13443;SDS011;6794;59.218;18.218;2023-03-14T15:00:23;1.67;;;1.35;;
13443;SDS011;6794;59.218;18.218;2023-03-14T15:02:50;2.47;;;1.40;;
13443;SDS011;6794;59.218;18.218;2023-03-14T15:05:18;1.30;;;1.20;;
13443;SDS011;6794;59.218;18.218;2023-03-14T15:07:44;1.30;;;1.20;;
13443;SDS011;6794;59.218;18.218;2023-03-14T15:10:29;1.40;;;1.30;;
13443;SDS011;6794;59.218;18.218;2023-03-14T15:12:55;1.40;;;1.00;;
13443;SDS011;6794;59.218;18.218;2023-03-14T15:15:21;1.20;;;1.00;;
13443;SDS011;6794;59.218;18.218;2023-03-14T15:17:47;1.60;;;1.00;;
13443;SDS011;6794;59.218;18.218;2023-03-14T15:20:14;0.87;;;0.87;;
13443;SDS011;6794;59.218;18.218;2023-03-14T15:22:40;0.75;;;0.75;;
13443;SDS011;6794;59.218;18.218;2023-03-14T15:25:07;1.07;;;0.97;;
13443;SDS011;6794;59.218;18.218;2023-03-14T15:27:33;1.00;;;0.90;;
13443;SDS011;6794;59.218;18.218;2023-03-14T15:29:59;2.10;;;1.00;;
13443;SDS011;6794;59.218;18.218;2023-03-14T15:32:26;1.33;;;0.90;;
13443;SDS011;6794;59.218;18.218;2023-03-14T15:34:54;1.20;;;1.10;;
13443;SDS011;6794;59.218;18.218;2023-03-14T15:37:20;2.20;;;1.10;;
13443;SDS011;6794;59.218;18.218;2023-03-14T15:39:46;1.00;;;1.00;;
13443;SDS011;6794;59.218;18.218;2023-03-14T15:42:12;0.97;;;0.90;;
13443;SDS011;6794;59.218;18.218;2023-03-14T15:44:38;1.15;;;1.02;;
13443;SDS011;6794;59.218;18.218;2023-03-14T15:47:04;2.30;;;2.10;;
13443;SDS011;6794;59.218;18.218;2023-03-14T15:49:30;4.03;;;3.67;;
13443;SDS011;6794;59.218;18.218;2023-03-14T15:51:57;1.63;;;1.52;;
13443;SDS011;6794;59.218;18.218;2023-03-14T15:54:24;1.90;;;1.70;;
13443;SDS011;6794;59.218;18.218;2023-03-14T15:56:53;1.45;;;1.35;;